sensor_id;sensor_type;location;lat;lon;timestamp;pressure;altitude;pressure_sealevel;temperature;humidity
38718;BME280;24468;52.128;9.278;2022-12-18T00:01:20;102119.34;;;-4.79;100.00
38718;BME280;24468;52.128;9.278;2022-12-18T00:03:47;102122.69;;;-5.02;100.00
38718;BME280;24468;52.128;9.278;2022-12-18T00:06:13;102122.50;;;-4.87;100.00
38718;BME280;24468;52.128;9.278;2022-12-18T00:08:40;102131.44;;;-5.03;100.00
38718;BME280;24468;52.128;9.278;2022-12-18T00:11:08;102134.28;;;-4.99;100.00
38718;BME280;24468;52.128;9.278;2022-12-18T00:13:35;102127.03;;;-5.04;100.00
38718;BME280;24468;52.128;9.278;2022-12-18T00:16:06;102119.19;;;-5.22;100.00
38718;BME280;24468;52.128;9.278;2022-12-18T00:18:33;102127.78;;;-5.26;100.00
38718;BME280;24468;52.128;9.278;2022-12-18T00:21:04;102142.81;;;-5.24;100.00
38718;BME280;24468;52.128;9.278;2022-12-18T00:23:31;102137.31;;;-5.48;100.00
38718;BME280;24468;52.128;9.278;2022-12-18T00:26:04;102146.88;;;-5.50;100.00
38718;BME280;24468;52.128;9.278;2022-12-18T00:28:30;102144.00;;;-5.54;100.00
38718;BME280;24468;52.128;9.278;2022-12-18T00:31:11;102154.72;;;-5.69;100.00
38718;BME280;24468;52.128;9.278;2022-12-18T00:33:37;102155.38;;;-5.73;100.00
38718;BME280;24468;52.128;9.278;2022-12-18T00:36:13;102155.06;;;-5.99;100.00
38718;BME280;24468;52.128;9.278;2022-12-18T00:38:40;102151.78;;;-5.95;100.00
38718;BME280;24468;52.128;9.278;2022-12-18T00:41:06;102147.81;;;-5.85;100.00
38718;BME280;24468;52.128;9.278;2022-12-18T00:43:32;102152.50;;;-5.60;100.00
38718;BME280;24468;52.128;9.278;2022-12-18T00:45:58;102137.38;;;-5.46;100.00
38718;BME280;24468;52.128;9.278;2022-12-18T00:48:23;102149.03;;;-5.78;100.00
38718;BME280;24468;52.128;9.278;2022-12-18T00:50:50;102152.69;;;-5.75;100.00
38718;BME280;24468;52.128;9.278;2022-12-18T00:53:16;102143.69;;;-5.80;100.00
38718;BME280;24468;52.128;9.278;2022-12-18T00:55:43;102151.09;;;-5.71;100.00
38718;BME280;24468;52.128;9.278;2022-12-18T00:58:10;102147.31;;;-5.78;100.00
38718;BME280;24468;52.128;9.278;2022-12-18T01:00:36;102152.22;;;-5.66;100.00
38718;BME280;24468;52.128;9.278;2022-12-18T01:03:02;102153.91;;;-5.86;100.00
38718;BME280;24468;52.128;9.278;2022-12-18T01:05:28;102157.56;;;-5.65;100.00
38718;BME280;24468;52.128;9.278;2022-12-18T01:07:55;102143.25;;;-5.52;100.00
38718;BME280;24468;52.128;9.278;2022-12-18T01:10:20;102140.47;;;-5.55;100.00
38718;BME280;24468;52.128;9.278;2022-12-18T01:12:46;102144.66;;;-5.41;100.00
38718;BME280;24468;52.128;9.278;2022-12-18T01:15:13;102145.22;;;-5.48;100.00
38718;BME280;24468;52.128;9.278;2022-12-18T01:17:39;102146.63;;;-5.54;100.00
38718;BME280;24468;52.128;9.278;2022-12-18T01:20:06;102149.09;;;-5.77;100.00
38718;BME280;24468;52.128;9.278;2022-12-18T01:22:32;102146.69;;;-5.72;100.00
38718;BME280;24468;52.128;9.278;2022-12-18T01:24:57;102152.00;;;-5.71;100.00
38718;BME280;24468;52.128;9.278;2022-12-18T01:27:22;102141.09;;;-5.61;100.00
38718;BME280;24468;52.128;9.278;2022-12-18T01:29:49;102152.84;;;-5.72;100.00
38718;BME280;24468;52.128;9.278;2022-12-18T01:32:14;102148.94;;;-5.62;100.00
38718;BME280;24468;52.128;9.278;2022-12-18T01:34:40;102145.72;;;-5.74;100.00
38718;BME280;24468;52.128;9.278;2022-12-18T01:37:06;102148.56;;;-5.70;100.00
38718;BME280;24468;52.128;9.278;2022-12-18T01:39:32;102159.88;;;-5.71;100.00
38718;BME280;24468;52.128;9.278;2022-12-18T01:41:59;102155.31;;;-5.75;100.00
38718;BME280;24468;52.128;9.278;2022-12-18T01:44:54;102161.72;;;-5.88;100.00
38718;BME280;24468;52.128;9.278;2022-12-18T01:50:13;102146.47;;;-5.77;100.00
38718;BME280;24468;52.128;9.278;2022-12-18T01:52:43;102149.34;;;-5.53;100.00
38718;BME280;24468;52.128;9.278;2022-12-18T01:55:11;102161.25;;;-5.79;100.00
38718;BME280;24468;52.128;9.278;2022-12-18T01:57:38;102165.06;;;-6.10;100.00
38718;BME280;24468;52.128;9.278;2022-12-18T02:00:15;102163.25;;;-6.29;100.00
38718;BME280;24468;52.128;9.278;2022-12-18T02:02:43;102160.91;;;-6.40;100.00
38718;BME280;24468;52.128;9.278;2022-12-18T02:05:11;102156.91;;;-6.50;100.00
38718;BME280;24468;52.128;9.278;2022-12-18T02:07:54;102149.22;;;-6.47;100.00
38718;BME280;24468;52.128;9.278;2022-12-18T02:10:31;102150.94;;;-6.30;100.00
38718;BME280;24468;52.128;9.278;2022-12-18T02:13:20;102156.88;;;-6.16;100.00
38718;BME280;24468;52.128;9.278;2022-12-18T02:16:34;102163.19;;;-6.12;100.00
38718;BME280;24468;52.128;9.278;2022-12-18T02:22:26;102159.44;;;-5.99;100.00
38718;BME280;24468;52.128;9.278;2022-12-18T02:25:17;102148.56;;;-5.88;100.00
38718;BME280;24468;52.128;9.278;2022-12-18T02:27:49;102153.84;;;-5.88;100.00
38718;BME280;24468;52.128;9.278;2022-12-18T02:30:16;102159.66;;;-5.95;100.00
38718;BME280;24468;52.128;9.278;2022-12-18T02:32:51;102150.75;;;-6.16;100.00
38718;BME280;24468;52.128;9.278;2022-12-18T02:35:24;102141.56;;;-6.24;100.00
38718;BME280;24468;52.128;9.278;2022-12-18T02:37:51;102142.53;;;-6.05;100.00
38718;BME280;24468;52.128;9.278;2022-12-18T02:40:19;102142.19;;;-5.93;100.00
38718;BME280;24468;52.128;9.278;2022-12-18T02:42:47;102153.19;;;-6.01;100.00
38718;BME280;24468;52.128;9.278;2022-12-18T02:45:12;102146.63;;;-5.92;100.00
38718;BME280;24468;52.128;9.278;2022-12-18T02:47:41;102146.75;;;-6.26;100.00
38718;BME280;24468;52.128;9.278;2022-12-18T02:50:36;102139.69;;;-6.27;100.00
38718;BME280;24468;52.128;9.278;2022-12-18T02:53:24;102136.53;;;-6.02;100.00
38718;BME280;24468;52.128;9.278;2022-12-18T02:56:14;102138.41;;;-6.17;100.00
38718;BME280;24468;52.128;9.278;2022-12-18T02:59:11;102139.44;;;-5.96;100.00
38718;BME280;24468;52.128;9.278;2022-12-18T03:01:50;102134.53;;;-5.88;100.00
38718;BME280;24468;52.128;9.278;2022-12-18T03:06:56;102131.34;;;-5.63;100.00
38718;BME280;24468;52.128;9.278;2022-12-18T03:09:39;102140.81;;;-5.67;100.00
38718;BME280;24468;52.128;9.278;2022-12-18T03:12:28;102131.13;;;-5.68;100.00
38718;BME280;24468;52.128;9.278;2022-12-18T03:17:32;102130.63;;;-5.78;100.00
38718;BME280;24468;52.128;9.278;2022-12-18T03:20:08;102133.41;;;-5.75;100.00
38718;BME280;24468;52.128;9.278;2022-12-18T03:22:36;102129.41;;;-5.67;100.00
38718;BME280;24468;52.128;9.278;2022-12-18T03:25:07;102136.09;;;-5.74;100.00
38718;BME280;24468;52.128;9.278;2022-12-18T03:27:38;102131.53;;;-5.78;100.00
38718;BME280;24468;52.128;9.278;2022-12-18T03:30:09;102149.63;;;-5.84;100.00
38718;BME280;24468;52.128;9.278;2022-12-18T03:33:10;102146.44;;;-5.96;100.00
38718;BME280;24468;52.128;9.278;2022-12-18T03:35:42;102143.50;;;-6.20;100.00
38718;BME280;24468;52.128;9.278;2022-12-18T03:38:09;102146.63;;;-6.11;100.00
38718;BME280;24468;52.128;9.278;2022-12-18T03:41:11;102145.41;;;-6.36;100.00
38718;BME280;24468;52.128;9.278;2022-12-18T03:44:00;102151.53;;;-6.69;100.00
38718;BME280;24468;52.128;9.278;2022-12-18T03:49:44;102153.81;;;-6.77;100.00
38718;BME280;24468;52.128;9.278;2022-12-18T03:52:26;102155.84;;;-6.72;100.00
38718;BME280;24468;52.128;9.278;2022-12-18T03:54:55;102146.78;;;-6.60;100.00
38718;BME280;24468;52.128;9.278;2022-12-18T03:57:26;102152.13;;;-6.41;100.00
38718;BME280;24468;52.128;9.278;2022-12-18T04:00:13;102142.38;;;-6.26;100.00
38718;BME280;24468;52.128;9.278;2022-12-18T04:02:44;102151.25;;;-6.23;100.00
38718;BME280;24468;52.128;9.278;2022-12-18T04:05:12;102143.31;;;-6.25;100.00
38718;BME280;24468;52.128;9.278;2022-12-18T04:07:39;102144.56;;;-6.35;100.00
38718;BME280;24468;52.128;9.278;2022-12-18T04:10:07;102149.59;;;-6.74;100.00
38718;BME280;24468;52.128;9.278;2022-12-18T04:12:34;102148.31;;;-6.82;100.00
38718;BME280;24468;52.128;9.278;2022-12-18T04:15:02;102154.00;;;-7.07;100.00
38718;BME280;24468;52.128;9.278;2022-12-18T04:17:28;102155.94;;;-7.52;99.31
38718;BME280;24468;52.128;9.278;2022-12-18T04:19:54;102156.66;;;-7.54;100.00
38718;BME280;24468;52.128;9.278;2022-12-18T04:22:19;102156.63;;;-7.40;100.00
38718;BME280;24468;52.128;9.278;2022-12-18T04:24:45;102154.06;;;-7.22;100.00
38718;BME280;24468;52.128;9.278;2022-12-18T04:27:10;102154.00;;;-7.07;100.00
38718;BME280;24468;52.128;9.278;2022-12-18T04:29:36;102154.88;;;-6.90;100.00
38718;BME280;24468;52.128;9.278;2022-12-18T04:32:01;102155.78;;;-6.89;100.00
38718;BME280;24468;52.128;9.278;2022-12-18T04:34:27;102149.44;;;-6.77;100.00
38718;BME280;24468;52.128;9.278;2022-12-18T04:36:52;102147.97;;;-6.72;100.00
38718;BME280;24468;52.128;9.278;2022-12-18T04:39:18;102151.47;;;-6.71;100.00
38718;BME280;24468;52.128;9.278;2022-12-18T04:41:43;102162.28;;;-7.16;100.00
38718;BME280;24468;52.128;9.278;2022-12-18T04:44:09;102158.88;;;-7.13;100.00
38718;BME280;24468;52.128;9.278;2022-12-18T04:46:34;102164.66;;;-7.20;100.00
38718;BME280;24468;52.128;9.278;2022-12-18T04:49:00;102152.00;;;-7.27;99.85
38718;BME280;24468;52.128;9.278;2022-12-18T04:51:25;102162.59;;;-7.26;98.30
38718;BME280;24468;52.128;9.278;2022-12-18T04:53:51;102166.41;;;-7.52;97.00
38718;BME280;24468;52.128;9.278;2022-12-18T04:56:17;102172.78;;;-7.63;97.42
38718;BME280;24468;52.128;9.278;2022-12-18T04:58:44;102168.63;;;-7.59;96.09
38718;BME280;24468;52.128;9.278;2022-12-18T05:01:11;102168.41;;;-7.48;97.46
38718;BME280;24468;52.128;9.278;2022-12-18T05:03:37;102149.41;;;-7.27;100.00
38718;BME280;24468;52.128;9.278;2022-12-18T05:06:04;102146.72;;;-7.12;100.00
38718;BME280;24468;52.128;9.278;2022-12-18T05:08:31;102150.78;;;-7.01;100.00
38718;BME280;24468;52.128;9.278;2022-12-18T05:11:08;102144.06;;;-6.96;100.00
38718;BME280;24468;52.128;9.278;2022-12-18T05:13:35;102153.38;;;-6.68;100.00
38718;BME280;24468;52.128;9.278;2022-12-18T05:16:01;102161.66;;;-6.61;100.00
38718;BME280;24468;52.128;9.278;2022-12-18T05:18:27;102165.63;;;-6.51;100.00
38718;BME280;24468;52.128;9.278;2022-12-18T05:20:53;102160.03;;;-6.41;100.00
38718;BME280;24468;52.128;9.278;2022-12-18T05:23:20;102164.69;;;-6.35;100.00
38718;BME280;24468;52.128;9.278;2022-12-18T05:25:54;102161.84;;;-6.22;100.00
38718;BME280;24468;52.128;9.278;2022-12-18T05:28:21;102160.09;;;-6.21;100.00
38718;BME280;24468;52.128;9.278;2022-12-18T05:30:57;102160.72;;;-6.27;100.00
38718;BME280;24468;52.128;9.278;2022-12-18T05:33:25;102154.56;;;-6.28;100.00
38718;BME280;24468;52.128;9.278;2022-12-18T05:35:52;102157.53;;;-6.38;100.00
38718;BME280;24468;52.128;9.278;2022-12-18T05:38:20;102159.13;;;-6.23;100.00
38718;BME280;24468;52.128;9.278;2022-12-18T05:40:47;102159.50;;;-6.16;100.00
38718;BME280;24468;52.128;9.278;2022-12-18T05:43:13;102170.47;;;-6.07;100.00
38718;BME280;24468;52.128;9.278;2022-12-18T05:45:40;102175.56;;;-5.92;100.00
38718;BME280;24468;52.128;9.278;2022-12-18T05:48:06;102176.25;;;-5.96;100.00
38718;BME280;24468;52.128;9.278;2022-12-18T05:50:37;102172.03;;;-5.92;100.00
38718;BME280;24468;52.128;9.278;2022-12-18T05:53:04;102172.97;;;-5.90;100.00
38718;BME280;24468;52.128;9.278;2022-12-18T05:55:34;102179.59;;;-5.81;100.00
38718;BME280;24468;52.128;9.278;2022-12-18T05:58:00;102178.91;;;-5.76;100.00
38718;BME280;24468;52.128;9.278;2022-12-18T06:00:26;102173.72;;;-5.75;100.00
38718;BME280;24468;52.128;9.278;2022-12-18T06:02:51;102180.50;;;-5.98;100.00
38718;BME280;24468;52.128;9.278;2022-12-18T06:05:17;102182.00;;;-5.85;100.00
38718;BME280;24468;52.128;9.278;2022-12-18T06:07:42;102176.22;;;-5.78;100.00
38718;BME280;24468;52.128;9.278;2022-12-18T06:10:08;102168.00;;;-5.84;100.00
38718;BME280;24468;52.128;9.278;2022-12-18T06:12:33;102176.38;;;-5.75;100.00
38718;BME280;24468;52.128;9.278;2022-12-18T06:15:00;102177.16;;;-5.76;100.00
38718;BME280;24468;52.128;9.278;2022-12-18T06:17:32;102188.50;;;-5.96;100.00
38718;BME280;24468;52.128;9.278;2022-12-18T06:19:58;102186.69;;;-6.15;100.00
38718;BME280;24468;52.128;9.278;2022-12-18T06:22:24;102188.09;;;-6.04;100.00
38718;BME280;24468;52.128;9.278;2022-12-18T06:24:49;102186.47;;;-6.02;100.00
38718;BME280;24468;52.128;9.278;2022-12-18T06:27:15;102170.16;;;-6.13;100.00
38718;BME280;24468;52.128;9.278;2022-12-18T06:29:41;102173.03;;;-6.08;100.00
38718;BME280;24468;52.128;9.278;2022-12-18T06:32:07;102175.88;;;-6.04;100.00
38718;BME280;24468;52.128;9.278;2022-12-18T06:34:33;102176.94;;;-6.00;100.00
38718;BME280;24468;52.128;9.278;2022-12-18T06:36:59;102187.66;;;-5.95;100.00
38718;BME280;24468;52.128;9.278;2022-12-18T06:39:26;102179.41;;;-6.03;100.00
38718;BME280;24468;52.128;9.278;2022-12-18T06:41:52;102184.13;;;-5.96;100.00
38718;BME280;24468;52.128;9.278;2022-12-18T06:44:18;102190.63;;;-5.88;100.00
38718;BME280;24468;52.128;9.278;2022-12-18T06:46:43;102195.41;;;-5.79;100.00
38718;BME280;24468;52.128;9.278;2022-12-18T06:49:09;102199.31;;;-5.71;100.00
38718;BME280;24468;52.128;9.278;2022-12-18T06:51:35;102194.28;;;-5.66;100.00
38718;BME280;24468;52.128;9.278;2022-12-18T06:54:01;102195.94;;;-5.68;100.00
38718;BME280;24468;52.128;9.278;2022-12-18T06:56:27;102208.56;;;-5.79;100.00
38718;BME280;24468;52.128;9.278;2022-12-18T06:58:53;102200.91;;;-5.74;100.00
38718;BME280;24468;52.128;9.278;2022-12-18T07:01:19;102211.88;;;-5.83;100.00
38718;BME280;24468;52.128;9.278;2022-12-18T07:03:45;102207.81;;;-5.76;100.00
38718;BME280;24468;52.128;9.278;2022-12-18T07:06:20;102202.66;;;-5.75;100.00
38718;BME280;24468;52.128;9.278;2022-12-18T07:08:47;102205.78;;;-5.64;100.00
38718;BME280;24468;52.128;9.278;2022-12-18T07:11:13;102210.06;;;-5.66;100.00
38718;BME280;24468;52.128;9.278;2022-12-18T07:13:39;102215.91;;;-5.90;100.00
38718;BME280;24468;52.128;9.278;2022-12-18T07:16:13;102231.72;;;-5.72;100.00
38718;BME280;24468;52.128;9.278;2022-12-18T07:18:39;102230.22;;;-5.67;100.00
38718;BME280;24468;52.128;9.278;2022-12-18T07:21:07;102232.59;;;-5.71;100.00
38718;BME280;24468;52.128;9.278;2022-12-18T07:23:34;102230.69;;;-5.93;100.00
38718;BME280;24468;52.128;9.278;2022-12-18T07:26:04;102232.56;;;-6.09;100.00
38718;BME280;24468;52.128;9.278;2022-12-18T07:28:31;102237.28;;;-6.19;100.00
38718;BME280;24468;52.128;9.278;2022-12-18T07:30:57;102239.34;;;-6.30;100.00
38718;BME280;24468;52.128;9.278;2022-12-18T07:33:22;102234.53;;;-6.39;100.00
38718;BME280;24468;52.128;9.278;2022-12-18T07:35:48;102235.91;;;-6.45;100.00
38718;BME280;24468;52.128;9.278;2022-12-18T07:38:13;102233.09;;;-6.32;100.00
38718;BME280;24468;52.128;9.278;2022-12-18T07:40:39;102225.31;;;-6.31;100.00
38718;BME280;24468;52.128;9.278;2022-12-18T07:43:04;102230.03;;;-6.41;100.00
38718;BME280;24468;52.128;9.278;2022-12-18T07:45:30;102223.22;;;-6.54;100.00
38718;BME280;24468;52.128;9.278;2022-12-18T07:47:55;102216.19;;;-6.55;100.00
38718;BME280;24468;52.128;9.278;2022-12-18T07:50:21;102219.53;;;-6.41;100.00
38718;BME280;24468;52.128;9.278;2022-12-18T07:52:47;102217.81;;;-6.23;100.00
38718;BME280;24468;52.128;9.278;2022-12-18T07:55:12;102213.03;;;-6.14;100.00
38718;BME280;24468;52.128;9.278;2022-12-18T07:57:38;102220.81;;;-6.15;100.00
38718;BME280;24468;52.128;9.278;2022-12-18T08:00:04;102223.16;;;-6.04;100.00
38718;BME280;24468;52.128;9.278;2022-12-18T08:02:33;102227.91;;;-5.96;100.00
38718;BME280;24468;52.128;9.278;2022-12-18T08:04:58;102213.94;;;-5.95;100.00
38718;BME280;24468;52.128;9.278;2022-12-18T08:07:24;102209.78;;;-5.90;100.00
38718;BME280;24468;52.128;9.278;2022-12-18T08:09:49;102209.66;;;-5.93;100.00
38718;BME280;24468;52.128;9.278;2022-12-18T08:12:15;102216.16;;;-5.85;100.00
38718;BME280;24468;52.128;9.278;2022-12-18T08:14:40;102222.22;;;-5.68;100.00
38718;BME280;24468;52.128;9.278;2022-12-18T08:17:06;102207.53;;;-5.65;100.00
38718;BME280;24468;52.128;9.278;2022-12-18T08:19:31;102214.25;;;-5.52;100.00
38718;BME280;24468;52.128;9.278;2022-12-18T08:21:57;102210.41;;;-5.41;100.00
38718;BME280;24468;52.128;9.278;2022-12-18T08:24:22;102200.06;;;-5.18;100.00
38718;BME280;24468;52.128;9.278;2022-12-18T08:26:48;102198.13;;;-5.03;100.00
38718;BME280;24468;52.128;9.278;2022-12-18T08:29:13;102202.84;;;-4.96;100.00
38718;BME280;24468;52.128;9.278;2022-12-18T08:31:39;102192.06;;;-5.02;100.00
38718;BME280;24468;52.128;9.278;2022-12-18T08:34:05;102193.72;;;-5.04;100.00
38718;BME280;24468;52.128;9.278;2022-12-18T08:36:30;102190.13;;;-5.43;100.00
38718;BME280;24468;52.128;9.278;2022-12-18T08:38:56;102198.47;;;-5.34;100.00
38718;BME280;24468;52.128;9.278;2022-12-18T08:41:22;102196.88;;;-5.11;100.00
38718;BME280;24468;52.128;9.278;2022-12-18T08:43:48;102194.59;;;-5.23;100.00
38718;BME280;24468;52.128;9.278;2022-12-18T08:46:36;102188.50;;;-5.22;100.00
38718;BME280;24468;52.128;9.278;2022-12-18T08:49:04;102186.31;;;-4.93;100.00
38718;BME280;24468;52.128;9.278;2022-12-18T08:51:30;102191.00;;;-4.86;100.00
38718;BME280;24468;52.128;9.278;2022-12-18T08:53:55;102190.44;;;-4.79;100.00
38718;BME280;24468;52.128;9.278;2022-12-18T08:56:21;102196.88;;;-4.72;100.00
38718;BME280;24468;52.128;9.278;2022-12-18T08:58:47;102184.59;;;-4.52;100.00
38718;BME280;24468;52.128;9.278;2022-12-18T09:01:13;102180.22;;;-4.31;100.00
38718;BME280;24468;52.128;9.278;2022-12-18T09:03:39;102180.34;;;-4.07;100.00
38718;BME280;24468;52.128;9.278;2022-12-18T09:06:05;102192.03;;;-3.79;100.00
38718;BME280;24468;52.128;9.278;2022-12-18T09:08:31;102195.09;;;-3.68;100.00
38718;BME280;24468;52.128;9.278;2022-12-18T09:10:57;102193.25;;;-3.48;100.00
38718;BME280;24468;52.128;9.278;2022-12-18T09:13:22;102186.69;;;-3.37;100.00
38718;BME280;24468;52.128;9.278;2022-12-18T09:15:51;102191.94;;;-3.37;100.00
38718;BME280;24468;52.128;9.278;2022-12-18T09:18:18;102185.13;;;-3.08;100.00
38718;BME280;24468;52.128;9.278;2022-12-18T09:20:45;102183.75;;;-2.98;100.00
38718;BME280;24468;52.128;9.278;2022-12-18T09:23:11;102169.88;;;-2.93;100.00
38718;BME280;24468;52.128;9.278;2022-12-18T09:25:37;102167.63;;;-1.78;100.00
38718;BME280;24468;52.128;9.278;2022-12-18T09:28:14;102162.19;;;-1.83;100.00
38718;BME280;24468;52.128;9.278;2022-12-18T09:30:43;102170.19;;;-2.08;100.00
38718;BME280;24468;52.128;9.278;2022-12-18T09:33:09;102169.00;;;-1.89;100.00
38718;BME280;24468;52.128;9.278;2022-12-18T09:35:40;102165.47;;;-1.90;100.00
38718;BME280;24468;52.128;9.278;2022-12-18T09:38:07;102155.47;;;-2.00;100.00
38718;BME280;24468;52.128;9.278;2022-12-18T09:40:39;102160.75;;;-2.26;100.00
38718;BME280;24468;52.128;9.278;2022-12-18T09:43:15;102171.72;;;-2.40;100.00
38718;BME280;24468;52.128;9.278;2022-12-18T09:45:46;102163.78;;;-2.66;100.00
38718;BME280;24468;52.128;9.278;2022-12-18T09:48:20;102165.88;;;-2.56;100.00
38718;BME280;24468;52.128;9.278;2022-12-18T09:50:48;102165.19;;;-2.76;100.00
38718;BME280;24468;52.128;9.278;2022-12-18T09:53:20;102168.91;;;-2.71;100.00
38718;BME280;24468;52.128;9.278;2022-12-18T09:55:48;102162.03;;;-2.65;100.00
38718;BME280;24468;52.128;9.278;2022-12-18T09:58:32;102163.34;;;-2.78;100.00
38718;BME280;24468;52.128;9.278;2022-12-18T10:00:58;102162.44;;;-2.79;100.00
38718;BME280;24468;52.128;9.278;2022-12-18T10:03:24;102152.09;;;-2.73;100.00
38718;BME280;24468;52.128;9.278;2022-12-18T10:06:07;102168.09;;;-2.44;100.00
38718;BME280;24468;52.128;9.278;2022-12-18T10:09:37;102161.78;;;-2.22;100.00
38718;BME280;24468;52.128;9.278;2022-12-18T10:12:03;102163.41;;;-2.00;100.00
38718;BME280;24468;52.128;9.278;2022-12-18T10:17:51;102158.94;;;-2.01;100.00
38718;BME280;24468;52.128;9.278;2022-12-18T10:23:43;102154.88;;;-1.90;100.00
38718;BME280;24468;52.128;9.278;2022-12-18T10:26:13;102156.91;;;-1.83;100.00
38718;BME280;24468;52.128;9.278;2022-12-18T10:28:40;102156.47;;;-1.68;100.00
38718;BME280;24468;52.128;9.278;2022-12-18T10:31:18;102158.22;;;-1.68;100.00
38718;BME280;24468;52.128;9.278;2022-12-18T10:33:45;102153.06;;;-1.35;100.00
38718;BME280;24468;52.128;9.278;2022-12-18T10:36:11;102153.50;;;-1.50;100.00
38718;BME280;24468;52.128;9.278;2022-12-18T10:38:37;102147.28;;;-1.52;100.00
38718;BME280;24468;52.128;9.278;2022-12-18T10:43:42;102133.00;;;-0.97;100.00
38718;BME280;24468;52.128;9.278;2022-12-18T10:51:29;102102.16;;;-0.95;100.00
38718;BME280;24468;52.128;9.278;2022-12-18T10:54:06;102106.69;;;-0.91;100.00
38718;BME280;24468;52.128;9.278;2022-12-18T10:56:38;102106.34;;;-0.71;100.00
38718;BME280;24468;52.128;9.278;2022-12-18T10:59:11;102109.22;;;-0.95;100.00
38718;BME280;24468;52.128;9.278;2022-12-18T11:01:55;102101.66;;;-0.80;100.00
38718;BME280;24468;52.128;9.278;2022-12-18T11:04:26;102102.75;;;-1.05;100.00
38718;BME280;24468;52.128;9.278;2022-12-18T11:06:58;102096.97;;;-1.23;100.00
38718;BME280;24468;52.128;9.278;2022-12-18T11:09:27;102087.59;;;-1.10;100.00
38718;BME280;24468;52.128;9.278;2022-12-18T11:11:56;102081.69;;;-1.32;100.00
38718;BME280;24468;52.128;9.278;2022-12-18T11:14:28;102074.25;;;-1.15;100.00
38718;BME280;24468;52.128;9.278;2022-12-18T11:16:55;102073.78;;;-1.30;100.00
38718;BME280;24468;52.128;9.278;2022-12-18T11:19:37;102076.59;;;-1.24;100.00
38718;BME280;24468;52.128;9.278;2022-12-18T11:22:25;102071.94;;;-1.33;100.00
38718;BME280;24468;52.128;9.278;2022-12-18T11:25:18;102077.66;;;-1.49;100.00
38718;BME280;24468;52.128;9.278;2022-12-18T11:28:08;102069.56;;;-1.54;100.00
38718;BME280;24468;52.128;9.278;2022-12-18T11:31:20;102045.81;;;-1.51;100.00
38718;BME280;24468;52.128;9.278;2022-12-18T11:33:57;102039.69;;;-1.50;100.00
38718;BME280;24468;52.128;9.278;2022-12-18T11:36:31;102035.13;;;-1.55;100.00
38718;BME280;24468;52.128;9.278;2022-12-18T11:39:05;102037.28;;;-1.42;100.00
38718;BME280;24468;52.128;9.278;2022-12-18T11:41:45;102036.75;;;-1.61;100.00
38718;BME280;24468;52.128;9.278;2022-12-18T11:44:47;102022.78;;;-1.55;100.00
38718;BME280;24468;52.128;9.278;2022-12-18T11:47:29;102024.53;;;-1.55;100.00
38718;BME280;24468;52.128;9.278;2022-12-18T11:50:01;102018.69;;;-1.44;100.00
38718;BME280;24468;52.128;9.278;2022-12-18T11:52:38;102013.06;;;-1.24;100.00
38718;BME280;24468;52.128;9.278;2022-12-18T11:58:03;101996.88;;;-1.35;100.00
38718;BME280;24468;52.128;9.278;2022-12-18T12:00:41;101994.44;;;-1.27;100.00
38718;BME280;24468;52.128;9.278;2022-12-18T12:03:41;101984.72;;;-1.28;100.00
38718;BME280;24468;52.128;9.278;2022-12-18T12:09:10;101998.56;;;-1.05;100.00
38718;BME280;24468;52.128;9.278;2022-12-18T12:15:10;101982.94;;;-0.95;100.00
38718;BME280;24468;52.128;9.278;2022-12-18T12:17:45;101974.47;;;-0.81;100.00
38718;BME280;24468;52.128;9.278;2022-12-18T12:20:42;101960.19;;;-0.86;100.00
38718;BME280;24468;52.128;9.278;2022-12-18T12:26:44;101959.78;;;-1.02;100.00
38718;BME280;24468;52.128;9.278;2022-12-18T12:35:48;101948.47;;;-0.96;100.00
38718;BME280;24468;52.128;9.278;2022-12-18T12:38:24;101931.81;;;-0.91;100.00
38718;BME280;24468;52.128;9.278;2022-12-18T12:40:58;101934.38;;;-0.59;100.00
38718;BME280;24468;52.128;9.278;2022-12-18T12:43:43;101937.81;;;-0.63;100.00
38718;BME280;24468;52.128;9.278;2022-12-18T12:46:12;101948.25;;;-0.69;100.00
38718;BME280;24468;52.128;9.278;2022-12-18T12:48:55;101939.72;;;-0.56;100.00
38718;BME280;24468;52.128;9.278;2022-12-18T12:51:29;101943.88;;;-0.29;100.00
38718;BME280;24468;52.128;9.278;2022-12-18T12:53:57;101947.25;;;-0.36;100.00
38718;BME280;24468;52.128;9.278;2022-12-18T13:05:26;101930.75;;;-0.23;100.00
38718;BME280;24468;52.128;9.278;2022-12-18T13:08:02;101934.63;;;-0.07;100.00
38718;BME280;24468;52.128;9.278;2022-12-18T13:10:40;101912.81;;;-0.35;100.00
38718;BME280;24468;52.128;9.278;2022-12-18T13:13:14;101919.25;;;-0.24;100.00
38718;BME280;24468;52.128;9.278;2022-12-18T13:15:47;101917.63;;;-0.17;100.00
38718;BME280;24468;52.128;9.278;2022-12-18T13:18:20;101922.97;;;-0.15;100.00
38718;BME280;24468;52.128;9.278;2022-12-18T13:20:50;101931.81;;;-0.15;100.00
38718;BME280;24468;52.128;9.278;2022-12-18T13:23:29;101939.66;;;-0.19;100.00
38718;BME280;24468;52.128;9.278;2022-12-18T13:34:27;101930.56;;;-0.31;100.00
38718;BME280;24468;52.128;9.278;2022-12-18T13:36:57;101922.53;;;-0.35;100.00
38718;BME280;24468;52.128;9.278;2022-12-18T13:39:42;101908.00;;;-0.53;100.00
38718;BME280;24468;52.128;9.278;2022-12-18T13:44:40;101890.94;;;-0.65;100.00
38718;BME280;24468;52.128;9.278;2022-12-18T13:47:34;101902.84;;;-0.47;100.00
38718;BME280;24468;52.128;9.278;2022-12-18T13:50:22;101911.00;;;-0.36;100.00
38718;BME280;24468;52.128;9.278;2022-12-18T13:52:50;101901.47;;;-0.29;100.00
38718;BME280;24468;52.128;9.278;2022-12-18T13:55:19;101897.97;;;-0.27;100.00
38718;BME280;24468;52.128;9.278;2022-12-18T13:57:46;101901.78;;;-0.53;100.00
38718;BME280;24468;52.128;9.278;2022-12-18T14:00:29;101888.19;;;-0.29;100.00
38718;BME280;24468;52.128;9.278;2022-12-18T14:02:57;101882.59;;;-0.43;100.00
38718;BME280;24468;52.128;9.278;2022-12-18T14:05:26;101882.25;;;-0.58;100.00
38718;BME280;24468;52.128;9.278;2022-12-18T14:07:53;101872.31;;;-0.67;100.00